Time;durP1;ratioP1;P1;durP2;ratioP2;P2;SDS_P1;SDS_P2;PMS_P1;PMS_P2;Temp;Humidity;BMP_temperature;BMP_pressure;BME280_temperature;BME280_humidity;BME280_pressure;Samples;Min_cycle;Max_cycle;Signal;HPM_P1;HPM_P2
2022/10/28 00:02:06;;;;;;;7.00;6.40;;;;;;;16.07;100.00;101529.66;6039299;23;20023;-73
2022/10/28 00:04:35;;;;;;;8.30;6.63;;;;;;;15.85;100.00;101485.13;6083143;23;20096;-74
2022/10/28 00:07:04;;;;;;;7.65;6.63;;;;;;;16.14;100.00;101530.97;6064980;23;20027;-73
2022/10/28 00:09:33;;;;;;;6.28;5.68;;;;;;;15.85;100.00;101472.72;6071479;23;20041;-72
2022/10/28 00:11:59;;;;;;;6.50;5.90;;;;;;;16.25;100.00;101530.31;6066227;23;20341;-70
2022/10/28 00:14:28;;;;;;;6.82;6.28;;;;;;;15.85;100.00;101445.41;6085489;23;20010;-73
2022/10/28 00:17:00;;;;;;;6.70;5.83;;;;;;;15.88;100.00;101446.09;6067248;23;20021;-71
2022/10/28 00:19:26;;;;;;;8.88;6.35;;;;;;;16.05;100.00;101489.19;6085142;23;20026;-74
2022/10/28 00:21:53;;;;;;;8.75;6.22;;;;;;;16.29;100.00;101527.34;6064893;23;20041;-73
2022/10/28 00:24:19;;;;;;;7.43;6.88;;;;;;;15.75;100.00;101439.84;6060541;23;20026;-74
2022/10/28 00:26:46;;;;;;;9.27;6.18;;;;;;;16.17;100.00;101498.16;6060633;23;20011;-74
2022/10/28 00:29:15;;;;;;;6.45;6.00;;;;;;;15.89;100.00;101460.16;6090591;23;20029;-73
2022/10/28 00:31:49;;;;;;;6.50;6.07;;;;;;;15.93;100.00;101465.16;6032087;23;20577;-74
2022/10/28 00:34:18;;;;;;;6.32;5.82;;;;;;;16.15;100.00;101485.84;6060032;23;20033;-73
2022/10/28 00:36:50;;;;;;;6.80;6.20;;;;;;;15.90;100.00;101438.91;6036429;23;20529;-74
2022/10/28 00:39:22;;;;;;;6.20;5.70;;;;;;;16.33;100.00;101505.03;6036976;23;20328;-71
2022/10/28 00:41:53;;;;;;;5.93;5.53;;;;;;;16.23;100.00;101488.00;6010779;23;20459;-73
2022/10/28 00:44:38;;;;;;;6.47;5.97;;;;;;;16.28;100.00;101504.47;6062856;23;20026;-74
2022/10/28 00:47:12;;;;;;;7.30;6.60;;;;;;;16.28;100.00;101498.34;6042039;23;20044;-74
2022/10/28 00:49:40;;;;;;;6.32;5.75;;;;;;;16.18;100.00;101490.13;6064765;23;20092;-73
2022/10/28 00:52:15;;;;;;;6.75;6.25;;;;;;;16.30;100.00;101499.09;6042503;23;20030;-73
2022/10/28 00:54:46;;;;;;;6.68;6.20;;;;;;;16.29;100.00;101503.50;6048501;23;20048;-75
2022/10/28 00:57:19;;;;;;;7.88;7.07;;;;;;;16.32;100.00;101519.22;6082059;23;20072;-74
2022/10/28 00:59:49;;;;;;;6.45;6.05;;;;;;;16.35;100.00;101518.16;6035403;23;20393;-74
2022/10/28 01:02:19;;;;;;;7.45;6.85;;;;;;;15.99;100.00;101457.78;6076659;23;20022;-73
2022/10/28 01:04:49;;;;;;;6.47;6.00;;;;;;;15.99;100.00;101457.78;6060451;23;20074;-72
2022/10/28 01:07:16;;;;;;;7.57;6.40;;;;;;;16.33;100.00;101512.97;6085278;23;20021;-72
2022/10/28 01:09:43;;;;;;;6.50;5.95;;;;;;;16.33;100.00;101502.38;6057526;23;20026;-74
2022/10/28 01:12:34;;;;;;;7.20;6.70;;;;;;;16.48;100.00;101500.56;6093090;23;20028;-74
2022/10/28 01:15:19;;;;;;;6.90;5.63;;;;;;;16.33;100.00;101461.78;6038794;23;20037;-73
2022/10/28 01:18:11;;;;;;;6.05;5.55;;;;;;;16.51;100.00;101499.50;6094418;23;20015;-75
2022/10/28 01:20:47;;;;;;;6.72;6.05;;;;;;;16.49;100.00;101502.25;6065350;23;20491;-74
2022/10/28 01:23:47;;;;;;;6.40;5.85;;;;;;;16.51;100.00;101508.28;6083219;23;20078;-73
2022/10/28 01:26:33;;;;;;;11.10;5.90;;;;;;;16.03;100.00;101444.25;6063514;23;20018;-74
2022/10/28 01:29:13;;;;;;;6.57;5.78;;;;;;;16.08;100.00;101446.63;6058956;23;20014;-75
2022/10/28 01:32:02;;;;;;;6.20;5.80;;;;;;;14.63;100.00;101206.94;6091648;23;20081;-74
2022/10/28 01:34:48;;;;;;;6.25;5.80;;;;;;;16.20;100.00;101471.50;6063422;23;20573;-74
2022/10/28 01:37:29;;;;;;;6.45;5.85;;;;;;;13.01;100.00;101001.91;6063217;23;20505;-76
2022/10/28 01:40:11;;;;;;;6.85;6.15;;;;;;;16.42;100.00;101527.44;6047488;23;20011;-72
2022/10/28 01:42:53;;;;;;;6.90;5.75;;;;;;;16.39;100.00;101524.97;6065771;18;20401;-73
2022/10/28 01:45:49;;;;;;;9.23;6.60;;;;;;;16.41;100.00;101519.59;6023758;23;20015;-74
2022/10/28 01:48:41;;;;;;;6.28;5.88;;;;;;;16.04;100.00;101471.59;6008573;23;20030;-72
2022/10/28 01:51:33;;;;;;;6.25;5.85;;;;;;;16.00;100.00;101470.94;6039271;23;20102;-72
2022/10/28 01:54:04;;;;;;;6.70;6.10;;;;;;;16.32;100.00;101535.13;5984351;23;20162;-75
2022/10/28 01:56:36;;;;;;;6.70;6.05;;;;;;;16.02;100.00;101484.09;6025057;23;20007;-75
2022/10/28 01:59:05;;;;;;;13.43;5.95;;;;;;;15.91;100.00;101477.63;5989555;23;20024;-73
2022/10/28 02:01:32;;;;;;;6.93;6.30;;;;;;;15.90;100.00;101469.81;5999995;23;20042;-74
2022/10/28 02:04:00;;;;;;;6.43;6.03;;;;;;;16.17;100.00;101514.03;5978210;23;20027;-72
2022/10/28 02:06:32;;;;;;;6.35;5.88;;;;;;;15.84;100.00;101468.41;6032545;23;20037;-75
2022/10/28 02:09:26;;;;;;;6.30;5.85;;;;;;;16.08;100.00;101502.25;6001970;23;20012;-75
2022/10/28 02:11:59;;;;;;;7.20;6.30;;;;;;;16.02;100.00;101503.47;6022470;23;20082;-73
2022/10/28 02:14:37;;;;;;;6.18;5.78;;;;;;;15.91;100.00;101496.16;5979748;23;20027;-74
2022/10/28 02:17:24;;;;;;;6.38;5.72;;;;;;;15.61;100.00;101459.19;6039313;23;20027;-75
2022/10/28 02:20:08;;;;;;;7.93;6.22;;;;;;;15.78;100.00;101497.91;5980612;23;20038;-75
2022/10/28 02:22:42;;;;;;;6.22;5.78;;;;;;;15.70;100.00;101506.25;5987232;23;20027;-75
2022/10/28 02:25:24;;;;;;;6.20;5.60;;;;;;;15.25;100.00;101441.09;6006584;23;20585;-75
2022/10/28 02:28:05;;;;;;;6.30;5.70;;;;;;;15.61;100.00;101490.09;6020385;23;20051;-73
2022/10/28 02:30:56;;;;;;;7.47;6.72;;;;;;;15.58;100.00;101492.94;5996748;23;20090;-74
2022/10/28 02:33:28;;;;;;;8.15;5.70;;;;;;;15.54;100.00;101486.97;5995552;23;20070;-74
2022/10/28 02:36:03;;;;;;;6.80;6.20;;;;;;;15.53;100.00;101483.47;6002473;23;20027;-74
2022/10/28 02:38:44;;;;;;;7.68;6.28;;;;;;;15.29;100.00;101434.69;6011875;23;20027;-73
2022/10/28 02:41:35;;;;;;;8.05;6.18;;;;;;;15.30;100.00;101434.59;6010510;23;20039;-74
2022/10/28 02:44:09;;;;;;;6.40;5.78;;;;;;;15.47;100.00;101467.97;6000010;23;20023;-74
2022/10/28 02:46:40;;;;;;;11.07;6.10;;;;;;;15.06;100.00;101418.41;5994470;23;20054;-74
2022/10/28 02:49:13;;;;;;;6.65;6.15;;;;;;;15.05;100.00;101423.78;6027771;23;20558;-76
2022/10/28 02:51:46;;;;;;;6.70;5.93;;;;;;;15.18;100.00;101453.00;5998094;23;20015;-74
2022/10/28 02:54:22;;;;;;;9.60;6.13;;;;;;;14.91;100.00;101412.25;5979637;23;20021;-75
2022/10/28 02:56:56;;;;;;;6.63;6.13;;;;;;;15.17;100.00;101452.13;5987173;23;20026;-74
2022/10/28 02:59:24;;;;;;;8.15;7.40;;;;;;;14.92;100.00;101407.81;6030513;23;20033;-74
2022/10/28 03:01:50;;;;;;;6.90;6.30;;;;;;;14.94;100.00;101411.22;6004460;23;20051;-74
2022/10/28 03:04:17;;;;;;;6.25;5.70;;;;;;;15.19;100.00;101444.13;5999891;23;20417;-75
2022/10/28 03:06:43;;;;;;;6.80;6.30;;;;;;;15.18;100.00;101439.78;6002422;23;20011;-74
2022/10/28 03:09:10;;;;;;;6.70;6.20;;;;;;;14.81;100.00;101383.81;6027228;23;20038;-73
2022/10/28 03:11:36;;;;;;;6.85;5.85;;;;;;;15.14;100.00;101429.38;5988925;23;20294;-75
2022/10/28 03:14:03;;;;;;;7.85;7.10;;;;;;;15.01;100.00;101417.81;6001026;23;20011;-72
2022/10/28 03:16:29;;;;;;;7.32;6.22;;;;;;;15.06;100.00;101423.72;6007796;23;20060;-72
2022/10/28 03:18:56;;;;;;;7.25;6.53;;;;;;;14.80;100.00;101385.59;6021175;23;20035;-73
2022/10/28 03:21:22;;;;;;;6.05;5.65;;;;;;;15.04;100.00;101432.69;6005633;23;20053;-72
2022/10/28 03:23:48;;;;;;;6.38;5.97;;;;;;;15.04;100.00;101436.16;6001993;23;20086;-73
2022/10/28 03:26:15;;;;;;;7.57;6.68;;;;;;;15.05;100.00;101429.91;5992085;23;20024;-74
2022/10/28 03:28:41;;;;;;;6.72;6.22;;;;;;;15.12;100.00;101423.34;6004908;23;20427;-73
2022/10/28 03:31:08;;;;;;;6.40;5.63;;;;;;;14.90;100.00;101368.25;5969600;23;20038;-74
2022/10/28 03:33:34;;;;;;;5.88;5.47;;;;;;;15.30;100.00;101428.47;5979746;23;20019;-73
2022/10/28 03:36:00;;;;;;;8.20;6.40;;;;;;;15.16;100.00;101408.16;5997635;23;20363;-73
2022/10/28 03:38:27;;;;;;;6.55;6.05;;;;;;;14.94;100.00;101353.91;6029580;23;20022;-73
2022/10/28 03:40:53;;;;;;;6.10;5.70;;;;;;;14.36;100.00;101235.84;6000376;23;20031;-74
2022/10/28 03:43:20;;;;;;;6.28;5.72;;;;;;;15.30;100.00;101392.28;6004341;23;20426;-73
2022/10/28 03:45:46;;;;;;;6.78;6.00;;;;;;;15.45;100.00;101416.09;5976572;23;20016;-73
2022/10/28 03:48:12;;;;;;;6.07;5.68;;;;;;;15.36;100.00;101406.94;6027052;23;20105;-72
2022/10/28 03:50:39;;;;;;;6.75;6.13;;;;;;;15.31;100.00;101415.13;5996327;23;21473;-73
2022/10/28 03:53:05;;;;;;;5.90;5.47;;;;;;;15.11;100.00;101378.47;5992708;23;20023;-74
2022/10/28 03:55:32;;;;;;;6.05;5.57;;;;;;;15.08;100.00;101374.22;5993961;23;20034;-74
2022/10/28 03:58:02;;;;;;;6.97;6.38;;;;;;;15.30;100.00;101408.16;6007921;23;20019;-73
2022/10/28 04:00:28;;;;;;;7.13;6.63;;;;;;;15.36;100.00;101409.59;5985628;23;20062;-74
2022/10/28 04:02:55;;;;;;;7.07;6.38;;;;;;;15.38;100.00;101405.06;5998301;23;20011;-74
2022/10/28 04:05:22;;;;;;;6.35;5.65;;;;;;;15.29;100.00;101393.22;5980575;23;20086;-74
2022/10/28 04:07:48;;;;;;;7.50;6.25;;;;;;;15.25;100.00;101404.94;6006676;23;20014;-73
2022/10/28 04:10:16;;;;;;;6.00;5.50;;;;;;;15.16;100.00;101401.06;5988324;23;20023;-75
2022/10/28 04:12:42;;;;;;;8.63;6.25;;;;;;;15.03;100.00;101391.31;6024801;23;20090;-70
2022/10/28 04:15:08;;;;;;;6.60;6.00;;;;;;;15.19;100.00;101421.16;5999106;23;20023;-72
2022/10/28 04:17:35;;;;;;;6.57;6.13;;;;;;;14.89;100.00;101344.56;6026842;23;20030;-72
2022/10/28 04:20:01;;;;;;;6.80;6.20;;;;;;;14.36;100.00;101264.91;5996588;23;20623;-73
2022/10/28 04:22:28;;;;;;;6.70;6.15;;;;;;;15.39;100.00;101412.03;6028519;23;20170;-73
2022/10/28 04:24:54;;;;;;;6.28;5.80;;;;;;;15.40;100.00;101426.97;5995714;23;20022;-72
2022/10/28 04:27:21;;;;;;;6.70;6.05;;;;;;;15.14;100.00;101387.06;6003926;23;20019;-74
2022/10/28 04:29:47;;;;;;;11.98;6.38;;;;;;;15.31;100.00;101425.72;5971138;23;20049;-74
2022/10/28 04:32:13;;;;;;;5.97;5.43;;;;;;;15.29;100.00;101432.03;5999846;23;20035;-73
2022/10/28 04:34:40;;;;;;;8.70;6.20;;;;;;;15.21;100.00;101426.38;5997521;23;20042;-74
2022/10/28 04:37:06;;;;;;;8.13;6.55;;;;;;;15.18;100.00;101429.22;6028436;23;20038;-74
2022/10/28 04:39:32;;;;;;;5.97;5.50;;;;;;;15.19;100.00;101433.53;5995815;23;20417;-74
2022/10/28 04:41:59;;;;;;;6.60;6.03;;;;;;;14.82;100.00;101372.31;5999364;23;20011;-73
2022/10/28 04:44:25;;;;;;;8.98;6.32;;;;;;;15.28;100.00;101435.66;5981115;23;20636;-73
2022/10/28 04:46:55;;;;;;;10.02;5.82;;;;;;;14.63;100.00;101331.09;6004485;23;20053;-75
2022/10/28 04:49:21;;;;;;;7.22;5.68;;;;;;;15.24;100.00;101436.78;5982914;23;20094;-74
2022/10/28 04:51:47;;;;;;;6.70;6.22;;;;;;;14.13;100.00;101267.09;6014844;23;20022;-75
2022/10/28 04:54:14;;;;;;;6.15;5.65;;;;;;;15.12;100.00;101435.72;5999546;23;20094;-74
2022/10/28 04:56:40;;;;;;;7.03;6.38;;;;;;;14.94;100.00;101421.78;5996185;23;20011;-73
2022/10/28 04:59:07;;;;;;;7.45;6.63;;;;;;;15.14;100.00;101460.28;6001977;23;20039;-74
2022/10/28 05:01:33;;;;;;;7.65;5.50;;;;;;;15.09;100.00;101444.66;6025955;23;20488;-74
2022/10/28 05:04:00;;;;;;;6.10;5.70;;;;;;;14.92;100.00;101429.81;5993753;23;20464;-74
2022/10/28 05:06:26;;;;;;;6.88;6.28;;;;;;;15.00;100.00;101447.03;6024507;23;20467;-74
2022/10/28 05:08:52;;;;;;;12.27;6.47;;;;;;;15.01;100.00;101438.13;5978487;23;20420;-74
2022/10/28 05:11:19;;;;;;;13.50;6.20;;;;;;;15.02;100.00;101432.75;6015804;23;20023;-75
2022/10/28 05:13:45;;;;;;;6.15;5.65;;;;;;;15.03;100.00;101437.09;6000630;23;20012;-71
2022/10/28 05:16:12;;;;;;;8.77;7.03;;;;;;;14.77;100.00;101398.97;6003187;23;20023;-73
2022/10/28 05:18:38;;;;;;;6.85;6.20;;;;;;;14.87;100.00;101412.50;5994914;23;20031;-75
2022/10/28 05:21:05;;;;;;;8.13;6.28;;;;;;;15.02;100.00;101438.03;6003846;23;20563;-75
2022/10/28 05:23:31;;;;;;;7.50;6.93;;;;;;;15.09;100.00;101441.16;5996758;23;20036;-75
2022/10/28 05:25:57;;;;;;;5.97;5.57;;;;;;;15.08;100.00;101440.31;5989171;23;20042;-74
2022/10/28 05:28:24;;;;;;;8.38;6.47;;;;;;;14.66;100.00;101375.84;5991506;23;20020;-74
2022/10/28 05:30:50;;;;;;;6.40;5.90;;;;;;;14.56;100.00;101353.56;6022463;23;20100;-73
2022/10/28 05:33:17;;;;;;;6.70;6.20;;;;;;;14.90;100.00;101401.78;6002234;23;20019;-73
2022/10/28 05:35:43;;;;;;;7.20;6.13;;;;;;;15.14;100.00;101449.69;5991399;23;20027;-73
2022/10/28 05:38:10;;;;;;;6.70;6.10;;;;;;;15.09;100.00;101438.53;6005055;23;20029;-74
2022/10/28 05:40:36;;;;;;;9.10;6.18;;;;;;;14.75;100.00;101396.44;6001941;23;20015;-71
2022/10/28 05:43:03;;;;;;;5.88;5.40;;;;;;;14.91;100.00;101424.59;5996273;23;20625;-73
2022/10/28 05:45:29;;;;;;;5.97;5.45;;;;;;;14.73;100.00;101400.97;6003203;23;20729;-73
2022/10/28 05:47:56;;;;;;;7.00;6.50;;;;;;;15.01;100.00;101438.13;6000166;23;20027;-74
2022/10/28 05:50:23;;;;;;;6.10;5.70;;;;;;;15.03;100.00;101436.25;5992283;23;20081;-73
2022/10/28 05:52:54;;;;;;;11.30;6.10;;;;;;;14.92;100.00;101434.25;6041473;23;20041;-73
2022/10/28 05:55:23;;;;;;;6.15;5.72;;;;;;;14.80;100.00;101397.97;5985875;23;20115;-72
2022/10/28 05:57:51;;;;;;;6.75;6.07;;;;;;;15.07;100.00;101440.41;6033596;23;20018;-73
2022/10/28 06:00:21;;;;;;;10.60;6.35;;;;;;;15.09;100.00;101443.81;5997191;23;20098;-74
2022/10/28 06:02:47;;;;;;;6.63;5.97;;;;;;;14.74;100.00;101396.53;6000906;23;20019;-74
2022/10/28 06:05:14;;;;;;;6.65;6.07;;;;;;;15.15;100.00;101435.50;6001292;23;21066;-74
2022/10/28 06:07:41;;;;;;;8.68;6.22;;;;;;;15.26;100.00;101437.53;5998937;23;20342;-72
2022/10/28 06:10:09;;;;;;;6.97;6.40;;;;;;;15.29;100.00;101438.19;5997750;23;20085;-75
2022/10/28 06:12:36;;;;;;;6.18;5.72;;;;;;;15.13;100.00;101419.75;6025066;23;20124;-74
2022/10/28 06:15:03;;;;;;;7.32;6.72;;;;;;;15.22;100.00;101428.94;6000755;23;20044;-73
2022/10/28 06:17:30;;;;;;;5.78;5.38;;;;;;;15.33;100.00;101445.00;5985372;23;20031;-75
2022/10/28 06:19:56;;;;;;;8.80;6.38;;;;;;;15.16;100.00;101416.91;6005914;23;20043;-72
2022/10/28 06:22:22;;;;;;;8.68;7.85;;;;;;;15.21;100.00;101413.16;6003257;23;20109;-72
2022/10/28 06:24:49;;;;;;;12.60;5.93;;;;;;;15.43;100.00;101450.56;5995465;23;20011;-71
2022/10/28 06:27:15;;;;;;;7.60;6.82;;;;;;;15.42;100.00;101453.34;6021860;23;20047;-74
2022/10/28 06:29:42;;;;;;;6.75;6.25;;;;;;;15.40;100.00;101452.56;5998155;23;20018;-73
2022/10/28 06:32:09;;;;;;;8.57;6.03;;;;;;;15.37;100.00;101448.28;6020832;23;20070;-74
2022/10/28 06:34:38;;;;;;;12.00;7.57;;;;;;;15.08;100.00;101403.31;5974832;23;20044;-76
2022/10/28 06:37:06;;;;;;;6.90;5.70;;;;;;;15.34;100.00;101440.56;5992191;23;20074;-76
2022/10/28 06:39:33;;;;;;;7.53;6.10;;;;;;;14.64;100.00;101335.47;5981429;23;20015;-77
2022/10/28 06:41:59;;;;;;;6.75;6.25;;;;;;;15.36;100.00;101449.25;5999817;23;20050;-77
2022/10/28 06:44:26;;;;;;;6.55;6.03;;;;;;;15.24;100.00;101428.84;5992270;23;20082;-76
2022/10/28 06:46:53;;;;;;;6.93;6.43;;;;;;;15.20;100.00;101414.09;5997887;23;20023;-76
2022/10/28 06:49:19;;;;;;;6.00;5.50;;;;;;;15.42;100.00;101451.53;5995322;23;20466;-75
2022/10/28 06:51:45;;;;;;;6.70;6.10;;;;;;;15.45;100.00;101443.38;6000339;23;20710;-76
2022/10/28 06:54:12;;;;;;;16.38;6.05;;;;;;;15.49;100.00;101438.78;5989897;23;20381;-76
2022/10/28 06:56:38;;;;;;;6.22;5.82;;;;;;;14.75;100.00;101318.97;5982575;23;20086;-75
2022/10/28 06:59:04;;;;;;;8.88;6.05;;;;;;;15.79;100.00;101478.41;5993212;23;20030;-75
2022/10/28 07:01:31;;;;;;;13.10;6.00;;;;;;;15.46;100.00;101431.03;6004708;23;20035;-75
2022/10/28 07:03:57;;;;;;;6.55;6.07;;;;;;;15.71;100.00;101470.06;5991261;23;20593;-74
2022/10/28 07:06:24;;;;;;;9.27;6.18;;;;;;;15.83;100.00;101484.38;6022990;23;20053;-76
2022/10/28 07:08:51;;;;;;;6.72;6.18;;;;;;;15.82;100.00;101482.69;5995690;23;20033;-77
2022/10/28 07:11:17;;;;;;;6.60;6.00;;;;;;;15.73;100.00;101470.84;6004611;23;20031;-76
2022/10/28 07:13:44;;;;;;;13.13;6.78;;;;;;;15.69;100.00;101462.22;5977351;23;20047;-75
2022/10/28 07:16:14;;;;;;;7.10;6.28;;;;;;;15.59;100.00;101452.28;6025371;23;20456;-75
2022/10/28 07:18:40;;;;;;;6.63;6.13;;;;;;;15.75;100.00;101461.00;5997351;23;20079;-75
2022/10/28 07:21:07;;;;;;;9.45;6.15;;;;;;;15.49;100.00;101407.88;6022639;23;20027;-75
2022/10/28 07:23:33;;;;;;;6.28;5.88;;;;;;;15.40;100.00;101395.22;5996399;23;20086;-74
2022/10/28 07:26:00;;;;;;;8.73;5.93;;;;;;;15.36;100.00;101383.13;6002874;23;20465;-74
2022/10/28 07:28:27;;;;;;;6.93;6.22;;;;;;;16.19;100.00;101504.19;5971734;23;20022;-76
2022/10/28 07:30:53;;;;;;;7.22;6.15;;;;;;;15.30;100.00;101347.34;5987226;23;20032;-76
2022/10/28 07:33:20;;;;;;;6.32;5.93;;;;;;;16.40;100.00;101518.75;6004461;23;20031;-76
2022/10/28 07:35:46;;;;;;;6.70;6.10;;;;;;;16.07;100.00;101455.50;6023845;23;20078;-76
2022/10/28 07:38:13;;;;;;;6.40;6.00;;;;;;;16.53;100.00;101510.84;5974354;23;20034;-76
2022/10/28 07:40:39;;;;;;;6.80;6.20;;;;;;;16.03;100.00;101422.22;6007361;23;20059;-77
2022/10/28 07:43:06;;;;;;;11.80;6.15;;;;;;;16.33;100.00;101461.78;6026135;18;20085;-72
2022/10/28 07:45:34;;;;;;;6.47;6.03;;;;;;;16.69;100.00;101519.50;5996245;23;20030;-74
2022/10/28 07:48:01;;;;;;;10.10;6.15;;;;;;;16.75;100.00;101532.34;6051266;23;20104;-74
2022/10/28 07:50:27;;;;;;;7.10;6.50;;;;;;;16.81;100.00;101544.41;6023586;23;20027;-74
2022/10/28 07:52:54;;;;;;;12.27;6.90;;;;;;;16.66;100.00;101510.94;6058160;23;20048;-74
2022/10/28 07:55:21;;;;;;;11.07;5.90;;;;;;;16.92;100.00;101535.78;6029826;23;20493;-73
2022/10/28 07:57:48;;;;;;;7.28;5.75;;;;;;;17.08;100.00;101547.06;6060772;23;20407;-74
2022/10/28 08:00:15;;;;;;;6.32;5.82;;;;;;;16.94;100.00;101515.31;6033545;23;20081;-73
2022/10/28 08:02:41;;;;;;;6.13;5.70;;;;;;;16.93;100.00;101493.22;6034723;23;20083;-74
2022/10/28 08:05:09;;;;;;;7.57;6.38;;;;;;;17.38;100.00;101553.94;6029738;23;20059;-74
2022/10/28 08:07:36;;;;;;;11.65;6.40;;;;;;;17.25;100.00;101513.25;6040572;23;20284;-74
2022/10/28 08:10:05;;;;;;;6.18;5.82;;;;;;;17.25;100.00;101492.03;6007745;23;20100;-75
2022/10/28 08:12:32;;;;;;;7.13;6.45;;;;;;;17.70;100.00;101540.25;6028313;23;20033;-73
2022/10/28 08:14:59;;;;;;;6.72;6.03;;;;;;;17.71;100.00;101542.81;6034133;23;20089;-73
2022/10/28 08:17:25;;;;;;;8.02;6.75;;;;;;;17.40;100.00;101491.00;6068452;23;20025;-74
2022/10/28 08:19:51;;;;;;;7.47;6.53;;;;;;;17.62;100.00;101516.03;6033924;23;20018;-74
2022/10/28 08:22:18;;;;;;;11.82;6.55;;;;;;;16.66;100.00;101362.50;6060044;23;20084;-74
2022/10/28 08:24:44;;;;;;;6.40;5.93;;;;;;;17.70;100.00;101550.88;6023819;23;20070;-74
2022/10/28 08:27:10;;;;;;;6.75;6.20;;;;;;;17.14;100.00;101450.31;6065186;23;20244;-74
2022/10/28 08:29:37;;;;;;;9.05;6.60;;;;;;;17.58;100.00;101523.38;6004569;23;20453;-74
2022/10/28 08:32:07;;;;;;;7.15;6.43;;;;;;;17.46;100.00;101511.81;6036833;23;20442;-74
2022/10/28 08:34:33;;;;;;;10.73;6.03;;;;;;;17.50;100.00;101513.28;6028323;23;20049;-74
2022/10/28 08:37:06;;;;;;;;;;;;;;;17.65;100.00;101537.91;6042757;23;20099;-73
2022/10/28 08:39:32;;;;;;;6.35;5.82;;;;;;;17.08;100.00;101433.03;6027389;23;20354;-73
2022/10/28 08:42:16;;;;;;;8.43;5.93;;;;;;;17.31;100.00;101468.56;6068417;23;20525;-73
2022/10/28 08:45:14;;;;;;;6.20;5.72;;;;;;;17.68;100.00;101524.44;6034457;23;20429;-73
2022/10/28 08:48:05;;;;;;;11.18;6.30;;;;;;;17.65;100.00;101535.25;6031129;23;20363;-74
2022/10/28 08:50:43;;;;;;;10.60;5.88;;;;;;;17.54;100.00;101511.28;6013846;23;20038;-72
2022/10/28 08:53:15;;;;;;;8.65;6.25;;;;;;;17.34;100.00;101475.50;6069827;23;20237;-73
2022/10/28 08:55:44;;;;;;;;;;;;;;;17.68;100.00;101521.78;6032444;23;20043;-72
2022/10/28 08:58:25;;;;;;;10.48;5.95;;;;;;;17.65;100.00;101486.63;6033713;23;19925;-74
2022/10/28 09:00:53;;;;;;;15.32;7.03;;;;;;;17.60;100.00;101451.59;6029458;23;20484;-73
2022/10/28 09:03:26;;;;;;;6.32;5.82;;;;;;;18.22;100.00;101530.47;6058731;23;20026;-73
2022/10/28 09:06:02;;;;;;;7.97;6.22;;;;;;;17.66;100.00;101408.69;6028219;23;20011;-73
2022/10/28 09:08:33;;;;;;;6.18;5.57;;;;;;;18.58;99.87;101516.34;6056936;23;20461;-72
2022/10/28 09:11:13;;;;;;;14.70;5.97;;;;;;;18.65;98.83;101522.06;6030247;23;20030;-72
2022/10/28 09:13:50;;;;;;;6.53;6.03;;;;;;;18.23;97.62;101426.75;6073238;23;20237;-73
2022/10/28 09:16:38;;;;;;;6.40;5.90;;;;;;;18.97;96.92;101525.03;6029951;23;20454;-73
2022/10/28 09:19:19;;;;;;;7.60;6.55;;;;;;;18.75;93.86;101456.63;6049859;23;20461;-74
2022/10/28 09:21:51;;;;;;;6.55;6.05;;;;;;;19.32;92.48;101513.53;6029520;23;20026;-73
2022/10/28 09:24:22;;;;;;;8.45;6.68;;;;;;;19.42;91.66;101500.38;6055989;23;20207;-73
2022/10/28 09:27:28;;;;;;;11.70;6.07;;;;;;;19.27;90.81;101441.19;6028525;23;20242;-73
2022/10/28 09:30:16;;;;;;;9.90;6.20;;;;;;;19.79;89.94;101503.75;6055677;23;20676;-73
2022/10/28 09:33:07;;;;;;;13.80;6.18;;;;;;;19.98;88.13;101492.47;6020514;23;20069;-73
2022/10/28 09:35:42;;;;;;;8.80;6.13;;;;;;;20.18;87.69;101493.53;6063618;23;20014;-72
2022/10/28 09:38:28;;;;;;;6.68;6.15;;;;;;;20.34;86.84;101498.47;6032892;23;20093;-73
2022/10/28 09:41:03;;;;;;;11.65;7.32;;;;;;;20.18;85.91;101450.06;6031647;23;20413;-73
2022/10/28 09:43:34;;;;;;;7.50;6.75;;;;;;;20.25;84.46;101456.59;6018791;23;20058;-72
2022/10/28 09:46:13;;;;;;;15.77;6.63;;;;;;;20.30;83.97;101454.38;6057541;23;20030;-72
2022/10/28 09:48:44;;;;;;;12.55;6.60;;;;;;;19.98;82.92;101377.91;6038251;23;20552;-73
2022/10/28 09:51:25;;;;;;;9.73;7.38;;;;;;;20.76;83.03;101482.63;6051139;23;20194;-73
2022/10/28 09:54:01;;;;;;;7.18;6.57;;;;;;;21.04;81.96;101475.84;6011029;23;20560;-73
2022/10/28 09:56:29;;;;;;;7.47;6.30;;;;;;;21.14;80.57;101470.56;6024902;23;20029;-73
2022/10/28 09:59:01;;;;;;;9.30;7.07;;;;;;;20.90;78.87;101409.44;6023258;23;20403;-73
2022/10/28 10:01:35;;;;;;;;;;;;;;;21.28;79.33;101456.88;6065862;23;20464;-73
2022/10/28 10:04:05;;;;;;;6.63;6.22;;;;;;;20.85;78.73;101390.34;6031288;23;20005;-74
2022/10/28 10:06:36;;;;;;;6.47;5.88;;;;;;;21.22;78.63;101445.91;6056030;23;20449;-73
2022/10/28 10:09:03;;;;;;;8.48;5.95;;;;;;;21.00;79.19;101444.22;6025205;23;20407;-73
2022/10/28 10:11:47;;;;;;;6.30;5.80;;;;;;;20.98;81.21;101448.84;6041091;23;20026;-73
2022/10/28 10:14:18;;;;;;;6.90;6.43;;;;;;;20.91;81.24;101462.69;6027136;23;20037;-73
2022/10/28 10:17:05;;;;;;;9.27;6.60;;;;;;;20.89;80.92;101456.63;6044632;23;20080;-73
2022/10/28 10:19:56;;;;;;;6.85;6.30;;;;;;;21.03;80.62;101455.47;6015732;23;20027;-73
2022/10/28 10:22:43;;;;;;;7.70;6.85;;;;;;;20.95;80.94;101427.72;6057018;23;20084;-73
2022/10/28 10:25:18;;;;;;;6.85;6.15;;;;;;;21.14;80.92;101454.56;6029262;23;20034;-73
2022/10/28 10:28:02;;;;;;;7.35;6.70;;;;;;;21.27;80.05;101449.03;6058156;23;20006;-72
2022/10/28 10:30:36;;;;;;;7.38;6.60;;;;;;;21.46;80.16;101453.66;6024868;23;20222;-72
2022/10/28 10:33:04;;;;;;;6.50;6.00;;;;;;;21.58;79.42;101451.75;6038095;23;20108;-73
2022/10/28 10:35:34;;;;;;;9.57;6.50;;;;;;;21.26;78.62;101378.75;6034069;23;20015;-73
2022/10/28 10:38:04;;;;;;;7.05;6.45;;;;;;;20.91;78.27;101291.09;6032494;23;20039;-74
2022/10/28 10:40:34;;;;;;;7.18;6.10;;;;;;;21.44;77.74;101392.34;6031626;23;20480;-72
2022/10/28 10:43:21;;;;;;;7.00;6.38;;;;;;;21.85;77.83;101435.97;6026646;23;20066;-73
2022/10/28 10:45:57;;;;;;;9.25;6.50;;;;;;;21.82;78.61;101443.41;6061473;23;20022;-74
2022/10/28 10:48:24;;;;;;;15.68;6.68;;;;;;;21.67;77.60;101432.25;6028874;23;20610;-74
2022/10/28 10:50:51;;;;;;;7.65;6.50;;;;;;;20.99;78.49;101327.75;6062677;23;20030;-73
2022/10/28 10:53:29;;;;;;;7.43;6.50;;;;;;;20.52;78.29;101250.81;6021484;23;20034;-74
2022/10/28 10:56:00;;;;;;;8.88;8.05;;;;;;;21.56;78.67;101374.41;5933862;23;20028;-73
2022/10/28 10:58:30;;;;;;;7.15;6.45;;;;;;;21.86;78.05;101405.59;6007791;23;20054;-72
2022/10/28 11:00:59;;;;;;;7.78;6.95;;;;;;;22.09;77.25;101371.47;6062665;23;20010;-73
2022/10/28 11:03:33;;;;;;;7.07;6.38;;;;;;;22.36;76.18;101387.84;6039610;23;20022;-73
2022/10/28 11:06:01;;;;;;;7.20;6.60;;;;;;;22.81;74.95;101411.31;6060547;23;20047;-73
2022/10/28 11:08:53;;;;;;;7.47;6.75;;;;;;;22.62;74.21;101348.81;6036815;23;20220;-73
2022/10/28 11:11:21;;;;;;;10.05;6.53;;;;;;;22.84;74.77;101393.16;6061265;23;20464;-73
2022/10/28 11:14:02;;;;;;;6.90;6.43;;;;;;;22.81;74.84;101366.69;6034426;23;20014;-73
2022/10/28 11:16:28;;;;;;;6.90;6.32;;;;;;;22.96;74.99;101366.25;6051834;23;20088;-72
2022/10/28 11:18:57;;;;;;;7.55;6.95;;;;;;;23.16;74.39;101359.88;6032950;23;20018;-73
2022/10/28 11:21:41;;;;;;;6.75;6.25;;;;;;;23.36;73.94;101367.84;6057525;23;20013;-73
2022/10/28 11:24:33;;;;;;;7.22;6.70;;;;;;;23.55;73.62;101364.22;6036146;23;20050;-72
2022/10/28 11:27:05;;;;;;;12.43;6.40;;;;;;;23.55;73.48;101345.47;6058493;23;20325;-73
2022/10/28 11:29:32;;;;;;;7.10;6.60;;;;;;;23.36;72.63;101312.44;6031501;23;20038;-73
2022/10/28 11:32:32;;;;;;;6.88;6.40;;;;;;;23.55;73.02;101322.19;6039109;23;20394;-73
2022/10/28 11:35:14;;;;;;;7.07;6.57;;;;;;;23.80;72.76;101336.75;6028708;23;20025;-72
2022/10/28 11:37:51;;;;;;;6.90;6.40;;;;;;;23.57;71.74;101305.97;6040076;23;20011;-73
2022/10/28 11:40:48;;;;;;;7.05;6.38;;;;;;;23.85;72.24;101339.81;6030940;23;20035;-72